sensor_id;sensor_type;location;lat;lon;timestamp;P1;durP1;ratioP1;P2;durP2;ratioP2
11453;SDS011;5783;55.174;61.310;2024-02-21T00:36:53;9.00;;;7.20;;
11453;SDS011;5783;55.174;61.310;2024-02-21T00:49:35;9.20;;;7.20;;
11453;SDS011;5783;55.174;61.310;2024-02-21T03:33:27;12.20;;;9.00;;
11453;SDS011;5783;55.174;61.310;2024-02-21T04:22:55;12.50;;;9.20;;
11453;SDS011;5783;55.174;61.310;2024-02-21T04:25:25;11.80;;;9.15;;
11453;SDS011;5783;55.174;61.310;2024-02-21T04:27:54;10.80;;;8.50;;
11453;SDS011;5783;55.174;61.310;2024-02-21T04:43:05;13.20;;;9.20;;
11453;SDS011;5783;55.174;61.310;2024-02-21T04:45:34;11.55;;;8.85;;
11453;SDS011;5783;55.174;61.310;2024-02-21T04:48:03;11.70;;;8.63;;
11453;SDS011;5783;55.174;61.310;2024-02-21T04:50:32;11.85;;;8.40;;
11453;SDS011;5783;55.174;61.310;2024-02-21T04:53:01;12.10;;;8.80;;
11453;SDS011;5783;55.174;61.310;2024-02-21T04:55:31;13.90;;;9.20;;
11453;SDS011;5783;55.174;61.310;2024-02-21T04:58:00;11.65;;;8.60;;
11453;SDS011;5783;55.174;61.310;2024-02-21T05:00:29;12.05;;;8.75;;
11453;SDS011;5783;55.174;61.310;2024-02-21T05:02:59;11.57;;;8.87;;
11453;SDS011;5783;55.174;61.310;2024-02-21T05:05:28;12.35;;;9.00;;
11453;SDS011;5783;55.174;61.310;2024-02-21T05:07:57;17.07;;;11.27;;
11453;SDS011;5783;55.174;61.310;2024-02-21T05:10:26;19.30;;;13.60;;
11453;SDS011;5783;55.174;61.310;2024-02-21T05:12:56;25.07;;;16.77;;
11453;SDS011;5783;55.174;61.310;2024-02-21T05:15:25;29.45;;;22.35;;
11453;SDS011;5783;55.174;61.310;2024-02-21T05:17:54;29.03;;;20.27;;
11453;SDS011;5783;55.174;61.310;2024-02-21T05:20:23;32.53;;;22.33;;
11453;SDS011;5783;55.174;61.310;2024-02-21T05:22:52;27.15;;;19.55;;
11453;SDS011;5783;55.174;61.310;2024-02-21T05:25:22;29.30;;;19.60;;
11453;SDS011;5783;55.174;61.310;2024-02-21T05:27:51;25.95;;;19.95;;
11453;SDS011;5783;55.174;61.310;2024-02-21T05:30:21;29.30;;;20.90;;
11453;SDS011;5783;55.174;61.310;2024-02-21T05:32:50;28.10;;;20.70;;
11453;SDS011;5783;55.174;61.310;2024-02-21T05:35:19;32.10;;;23.30;;
11453;SDS011;5783;55.174;61.310;2024-02-21T05:37:52;34.65;;;24.15;;
11453;SDS011;5783;55.174;61.310;2024-02-21T05:40:21;33.15;;;24.00;;
11453;SDS011;5783;55.174;61.310;2024-02-21T05:42:51;36.25;;;25.75;;
11453;SDS011;5783;55.174;61.310;2024-02-21T05:45:20;39.23;;;28.00;;
11453;SDS011;5783;55.174;61.310;2024-02-21T05:47:49;36.80;;;27.25;;
11453;SDS011;5783;55.174;61.310;2024-02-21T05:50:18;38.40;;;28.10;;
11453;SDS011;5783;55.174;61.310;2024-02-21T05:55:38;36.20;;;28.45;;
11453;SDS011;5783;55.174;61.310;2024-02-21T05:58:07;37.43;;;28.17;;
11453;SDS011;5783;55.174;61.310;2024-02-21T06:00:38;37.70;;;26.30;;
11453;SDS011;5783;55.174;61.310;2024-02-21T06:03:07;36.97;;;25.77;;
11453;SDS011;5783;55.174;61.310;2024-02-21T06:05:37;35.10;;;25.37;;
11453;SDS011;5783;55.174;61.310;2024-02-21T06:08:06;37.77;;;24.77;;
11453;SDS011;5783;55.174;61.310;2024-02-21T06:10:35;32.33;;;22.63;;
11453;SDS011;5783;55.174;61.310;2024-02-21T06:13:04;30.97;;;21.00;;
11453;SDS011;5783;55.174;61.310;2024-02-21T06:15:33;32.13;;;20.73;;
11453;SDS011;5783;55.174;61.310;2024-02-21T06:18:02;25.73;;;18.70;;
11453;SDS011;5783;55.174;61.310;2024-02-21T06:20:32;27.03;;;18.77;;
11453;SDS011;5783;55.174;61.310;2024-02-21T06:23:02;27.10;;;18.50;;
11453;SDS011;5783;55.174;61.310;2024-02-21T06:25:32;23.93;;;17.23;;
11453;SDS011;5783;55.174;61.310;2024-02-21T06:28:01;24.07;;;17.03;;
11453;SDS011;5783;55.174;61.310;2024-02-21T06:30:31;21.90;;;16.17;;
11453;SDS011;5783;55.174;61.310;2024-02-21T06:33:00;24.07;;;16.00;;
11453;SDS011;5783;55.174;61.310;2024-02-21T06:35:29;21.87;;;14.97;;
11453;SDS011;5783;55.174;61.310;2024-02-21T06:37:58;22.57;;;16.10;;
11453;SDS011;5783;55.174;61.310;2024-02-21T06:40:27;24.03;;;15.93;;
11453;SDS011;5783;55.174;61.310;2024-02-21T06:42:58;26.03;;;16.00;;
11453;SDS011;5783;55.174;61.310;2024-02-21T06:45:27;19.67;;;14.67;;
11453;SDS011;5783;55.174;61.310;2024-02-21T06:47:56;25.70;;;16.33;;
11453;SDS011;5783;55.174;61.310;2024-02-21T06:50:25;20.97;;;15.80;;
11453;SDS011;5783;55.174;61.310;2024-02-21T06:52:54;20.40;;;14.57;;
11453;SDS011;5783;55.174;61.310;2024-02-21T06:55:23;22.13;;;15.50;;
11453;SDS011;5783;55.174;61.310;2024-02-21T06:57:52;23.40;;;14.83;;
11453;SDS011;5783;55.174;61.310;2024-02-21T07:00:21;19.73;;;14.27;;
11453;SDS011;5783;55.174;61.310;2024-02-21T07:02:52;18.70;;;14.50;;
11453;SDS011;5783;55.174;61.310;2024-02-21T07:05:21;17.97;;;13.47;;
11453;SDS011;5783;55.174;61.310;2024-02-21T07:07:50;18.70;;;13.47;;
11453;SDS011;5783;55.174;61.310;2024-02-21T07:10:19;20.23;;;13.87;;
11453;SDS011;5783;55.174;61.310;2024-02-21T07:12:49;17.30;;;13.70;;
11453;SDS011;5783;55.174;61.310;2024-02-21T07:15:18;18.43;;;13.60;;
11453;SDS011;5783;55.174;61.310;2024-02-21T07:17:47;21.43;;;13.87;;
11453;SDS011;5783;55.174;61.310;2024-02-21T07:20:16;18.70;;;14.13;;
11453;SDS011;5783;55.174;61.310;2024-02-21T07:22:45;19.50;;;14.90;;
11453;SDS011;5783;55.174;61.310;2024-02-21T07:25:15;20.63;;;14.47;;
11453;SDS011;5783;55.174;61.310;2024-02-21T07:27:44;18.77;;;14.07;;
11453;SDS011;5783;55.174;61.310;2024-02-21T07:30:13;19.83;;;14.87;;
11453;SDS011;5783;55.174;61.310;2024-02-21T07:32:42;19.27;;;14.23;;
11453;SDS011;5783;55.174;61.310;2024-02-21T07:35:12;19.83;;;15.17;;
11453;SDS011;5783;55.174;61.310;2024-02-21T07:37:41;18.70;;;13.60;;
11453;SDS011;5783;55.174;61.310;2024-02-21T07:42:59;19.07;;;14.50;;
11453;SDS011;5783;55.174;61.310;2024-02-21T07:45:28;20.40;;;14.77;;
11453;SDS011;5783;55.174;61.310;2024-02-21T07:50:46;19.80;;;14.13;;
11453;SDS011;5783;55.174;61.310;2024-02-21T07:53:15;22.13;;;13.53;;
11453;SDS011;5783;55.174;61.310;2024-02-21T07:55:44;19.07;;;14.27;;
11453;SDS011;5783;55.174;61.310;2024-02-21T07:58:14;17.53;;;13.17;;
11453;SDS011;5783;55.174;61.310;2024-02-21T08:00:43;18.43;;;13.13;;
11453;SDS011;5783;55.174;61.310;2024-02-21T08:03:12;17.63;;;13.23;;
11453;SDS011;5783;55.174;61.310;2024-02-21T08:05:43;19.60;;;13.77;;
11453;SDS011;5783;55.174;61.310;2024-02-21T08:08:12;17.83;;;12.90;;
11453;SDS011;5783;55.174;61.310;2024-02-21T08:11:01;17.53;;;12.80;;
11453;SDS011;5783;55.174;61.310;2024-02-21T08:13:30;20.00;;;13.33;;
11453;SDS011;5783;55.174;61.310;2024-02-21T08:16:00;19.37;;;12.90;;
11453;SDS011;5783;55.174;61.310;2024-02-21T08:18:29;19.87;;;13.07;;
11453;SDS011;5783;55.174;61.310;2024-02-21T08:21:00;16.53;;;11.53;;
11453;SDS011;5783;55.174;61.310;2024-02-21T08:23:29;17.87;;;12.27;;
11453;SDS011;5783;55.174;61.310;2024-02-21T08:25:58;19.40;;;11.40;;
11453;SDS011;5783;55.174;61.310;2024-02-21T08:28:28;19.20;;;11.97;;
11453;SDS011;5783;55.174;61.310;2024-02-21T08:30:56;15.77;;;10.53;;
11453;SDS011;5783;55.174;61.310;2024-02-21T08:33:25;14.07;;;10.40;;
11453;SDS011;5783;55.174;61.310;2024-02-21T08:35:56;13.83;;;10.13;;
11453;SDS011;5783;55.174;61.310;2024-02-21T08:38:25;17.13;;;11.00;;
11453;SDS011;5783;55.174;61.310;2024-02-21T08:40:54;15.73;;;10.13;;
11453;SDS011;5783;55.174;61.310;2024-02-21T08:43:23;15.53;;;9.90;;
11453;SDS011;5783;55.174;61.310;2024-02-21T08:45:52;13.90;;;9.47;;
11453;SDS011;5783;55.174;61.310;2024-02-21T08:48:41;12.73;;;9.20;;
11453;SDS011;5783;55.174;61.310;2024-02-21T08:51:12;16.33;;;9.90;;
11453;SDS011;5783;55.174;61.310;2024-02-21T08:53:42;15.37;;;9.60;;
11453;SDS011;5783;55.174;61.310;2024-02-21T08:56:31;13.67;;;9.80;;
11453;SDS011;5783;55.174;61.310;2024-02-21T08:59:01;13.97;;;8.97;;
11453;SDS011;5783;55.174;61.310;2024-02-21T09:01:30;13.87;;;9.20;;
11453;SDS011;5783;55.174;61.310;2024-02-21T09:04:00;12.97;;;8.77;;
11453;SDS011;5783;55.174;61.310;2024-02-21T09:06:29;12.37;;;8.93;;
11453;SDS011;5783;55.174;61.310;2024-02-21T09:08:59;12.70;;;8.47;;
11453;SDS011;5783;55.174;61.310;2024-02-21T09:11:28;13.63;;;8.70;;
11453;SDS011;5783;55.174;61.310;2024-02-21T09:13:57;14.23;;;8.33;;
11453;SDS011;5783;55.174;61.310;2024-02-21T09:16:26;11.80;;;8.63;;
11453;SDS011;5783;55.174;61.310;2024-02-21T09:18:55;13.53;;;8.13;;
11453;SDS011;5783;55.174;61.310;2024-02-21T09:21:24;13.23;;;7.67;;
11453;SDS011;5783;55.174;61.310;2024-02-21T09:23:54;11.30;;;7.67;;
11453;SDS011;5783;55.174;61.310;2024-02-21T09:26:23;14.23;;;7.30;;
11453;SDS011;5783;55.174;61.310;2024-02-21T09:28:52;10.00;;;7.63;;
11453;SDS011;5783;55.174;61.310;2024-02-21T09:31:21;12.23;;;7.67;;
11453;SDS011;5783;55.174;61.310;2024-02-21T09:33:50;11.03;;;7.40;;
11453;SDS011;5783;55.174;61.310;2024-02-21T09:36:19;12.73;;;7.87;;
11453;SDS011;5783;55.174;61.310;2024-02-21T09:38:49;12.17;;;7.63;;
11453;SDS011;5783;55.174;61.310;2024-02-21T09:41:18;10.37;;;7.50;;
11453;SDS011;5783;55.174;61.310;2024-02-21T09:43:49;9.70;;;7.00;;
11453;SDS011;5783;55.174;61.310;2024-02-21T09:49:46;8.83;;;6.50;;
11453;SDS011;5783;55.174;61.310;2024-02-21T09:52:17;8.73;;;6.27;;
11453;SDS011;5783;55.174;61.310;2024-02-21T09:54:48;10.17;;;6.20;;
11453;SDS011;5783;55.174;61.310;2024-02-21T09:57:18;10.53;;;6.83;;
11453;SDS011;5783;55.174;61.310;2024-02-21T09:59:51;11.93;;;6.50;;
11453;SDS011;5783;55.174;61.310;2024-02-21T10:02:21;8.10;;;6.43;;
11453;SDS011;5783;55.174;61.310;2024-02-21T10:04:50;6.77;;;6.00;;
11453;SDS011;5783;55.174;61.310;2024-02-21T10:07:20;10.97;;;5.77;;
11453;SDS011;5783;55.174;61.310;2024-02-21T10:10:00;9.47;;;6.00;;
11453;SDS011;5783;55.174;61.310;2024-02-21T10:15:30;8.73;;;5.40;;
11453;SDS011;5783;55.174;61.310;2024-02-21T10:18:00;10.03;;;5.80;;
11453;SDS011;5783;55.174;61.310;2024-02-21T10:20:30;7.10;;;5.40;;
11453;SDS011;5783;55.174;61.310;2024-02-21T10:23:00;5.17;;;4.57;;
11453;SDS011;5783;55.174;61.310;2024-02-21T10:25:32;6.93;;;5.10;;
11453;SDS011;5783;55.174;61.310;2024-02-21T10:28:04;7.77;;;5.17;;
11453;SDS011;5783;55.174;61.310;2024-02-21T10:30:33;8.00;;;5.03;;
11453;SDS011;5783;55.174;61.310;2024-02-21T10:33:02;6.67;;;5.13;;
11453;SDS011;5783;55.174;61.310;2024-02-21T10:38:22;6.00;;;4.30;;
11453;SDS011;5783;55.174;61.310;2024-02-21T10:40:51;5.97;;;4.70;;
11453;SDS011;5783;55.174;61.310;2024-02-21T10:43:23;6.17;;;4.43;;
11453;SDS011;5783;55.174;61.310;2024-02-21T10:45:54;6.73;;;4.57;;
11453;SDS011;5783;55.174;61.310;2024-02-21T10:48:31;5.50;;;4.30;;
11453;SDS011;5783;55.174;61.310;2024-02-21T10:50:57;6.00;;;4.20;;
11453;SDS011;5783;55.174;61.310;2024-02-21T10:56:54;5.77;;;4.30;;
11453;SDS011;5783;55.174;61.310;2024-02-21T10:59:25;5.40;;;4.03;;
11453;SDS011;5783;55.174;61.310;2024-02-21T11:02:15;6.60;;;3.90;;
11453;SDS011;5783;55.174;61.310;2024-02-21T11:04:44;5.63;;;3.83;;
11453;SDS011;5783;55.174;61.310;2024-02-21T11:07:15;6.57;;;3.90;;
11453;SDS011;5783;55.174;61.310;2024-02-21T11:09:50;5.67;;;3.97;;
11453;SDS011;5783;55.174;61.310;2024-02-21T11:12:34;6.27;;;4.00;;
11453;SDS011;5783;55.174;61.310;2024-02-21T11:15:04;5.10;;;3.90;;
11453;SDS011;5783;55.174;61.310;2024-02-21T11:17:34;5.30;;;3.87;;
11453;SDS011;5783;55.174;61.310;2024-02-21T11:23:11;6.10;;;4.00;;
11453;SDS011;5783;55.174;61.310;2024-02-21T11:25:40;5.93;;;4.13;;
11453;SDS011;5783;55.174;61.310;2024-02-21T11:28:09;7.17;;;4.03;;
11453;SDS011;5783;55.174;61.310;2024-02-21T11:30:38;6.77;;;4.20;;
11453;SDS011;5783;55.174;61.310;2024-02-21T11:33:09;4.30;;;3.90;;
11453;SDS011;5783;55.174;61.310;2024-02-21T11:35:40;4.40;;;3.50;;
11453;SDS011;5783;55.174;61.310;2024-02-21T11:40:58;4.33;;;3.23;;
11453;SDS011;5783;55.174;61.310;2024-02-21T11:43:27;4.00;;;3.20;;
11453;SDS011;5783;55.174;61.310;2024-02-21T11:48:46;7.87;;;3.70;;
11453;SDS011;5783;55.174;61.310;2024-02-21T11:54:06;5.60;;;4.00;;
11453;SDS011;5783;55.174;61.310;2024-02-21T11:56:35;5.37;;;3.80;;
11453;SDS011;5783;55.174;61.310;2024-02-21T11:59:04;5.20;;;3.70;;
11453;SDS011;5783;55.174;61.310;2024-02-21T12:01:33;4.77;;;3.77;;
11453;SDS011;5783;55.174;61.310;2024-02-21T12:04:02;7.47;;;4.40;;
11453;SDS011;5783;55.174;61.310;2024-02-21T12:06:32;4.80;;;3.70;;
11453;SDS011;5783;55.174;61.310;2024-02-21T12:09:02;6.27;;;3.83;;
11453;SDS011;5783;55.174;61.310;2024-02-21T12:11:31;5.70;;;3.60;;
11453;SDS011;5783;55.174;61.310;2024-02-21T12:14:00;5.33;;;4.20;;
11453;SDS011;5783;55.174;61.310;2024-02-21T12:16:32;6.33;;;4.30;;
11453;SDS011;5783;55.174;61.310;2024-02-21T12:19:03;5.07;;;4.03;;
11453;SDS011;5783;55.174;61.310;2024-02-21T12:21:32;5.70;;;3.93;;
11453;SDS011;5783;55.174;61.310;2024-02-21T12:26:54;5.63;;;4.20;;
11453;SDS011;5783;55.174;61.310;2024-02-21T12:29:43;7.37;;;4.33;;
11453;SDS011;5783;55.174;61.310;2024-02-21T12:32:13;5.53;;;4.43;;
11453;SDS011;5783;55.174;61.310;2024-02-21T12:34:42;6.60;;;4.20;;
11453;SDS011;5783;55.174;61.310;2024-02-21T12:37:11;6.80;;;4.40;;
11453;SDS011;5783;55.174;61.310;2024-02-21T12:39:41;6.10;;;4.60;;
11453;SDS011;5783;55.174;61.310;2024-02-21T12:42:10;6.13;;;4.47;;
11453;SDS011;5783;55.174;61.310;2024-02-21T12:44:40;7.70;;;5.20;;
11453;SDS011;5783;55.174;61.310;2024-02-21T12:47:09;9.57;;;5.77;;
11453;SDS011;5783;55.174;61.310;2024-02-21T12:49:38;6.83;;;5.60;;
11453;SDS011;5783;55.174;61.310;2024-02-21T12:52:07;6.70;;;5.20;;
11453;SDS011;5783;55.174;61.310;2024-02-21T12:57:25;9.23;;;5.53;;
11453;SDS011;5783;55.174;61.310;2024-02-21T12:59:54;5.93;;;5.10;;
11453;SDS011;5783;55.174;61.310;2024-02-21T13:02:23;8.83;;;5.00;;
11453;SDS011;5783;55.174;61.310;2024-02-21T13:04:52;6.50;;;4.80;;
11453;SDS011;5783;55.174;61.310;2024-02-21T13:07:22;8.30;;;5.20;;
11453;SDS011;5783;55.174;61.310;2024-02-21T13:09:51;7.33;;;5.70;;
11453;SDS011;5783;55.174;61.310;2024-02-21T13:12:20;5.90;;;5.03;;
11453;SDS011;5783;55.174;61.310;2024-02-21T13:14:51;6.17;;;5.00;;
11453;SDS011;5783;55.174;61.310;2024-02-21T13:17:20;9.70;;;5.17;;
11453;SDS011;5783;55.174;61.310;2024-02-21T13:19:49;6.33;;;5.00;;
11453;SDS011;5783;55.174;61.310;2024-02-21T13:22:18;8.67;;;5.10;;
11453;SDS011;5783;55.174;61.310;2024-02-21T13:24:49;7.67;;;5.50;;
11453;SDS011;5783;55.174;61.310;2024-02-21T13:27:18;7.13;;;5.53;;
11453;SDS011;5783;55.174;61.310;2024-02-21T13:29:47;7.37;;;5.30;;
11453;SDS011;5783;55.174;61.310;2024-02-21T13:32:16;7.43;;;5.80;;
11453;SDS011;5783;55.174;61.310;2024-02-21T13:34:45;6.40;;;5.20;;
11453;SDS011;5783;55.174;61.310;2024-02-21T13:37:14;7.20;;;5.80;;
11453;SDS011;5783;55.174;61.310;2024-02-21T13:39:43;7.73;;;5.47;;
11453;SDS011;5783;55.174;61.310;2024-02-21T13:42:13;7.17;;;5.57;;
11453;SDS011;5783;55.174;61.310;2024-02-21T13:44:43;7.10;;;5.47;;
11453;SDS011;5783;55.174;61.310;2024-02-21T13:50:03;7.80;;;6.20;;
11453;SDS011;5783;55.174;61.310;2024-02-21T13:52:53;10.37;;;6.03;;
11453;SDS011;5783;55.174;61.310;2024-02-21T13:55:22;7.63;;;5.73;;
11453;SDS011;5783;55.174;61.310;2024-02-21T13:58:11;7.77;;;5.70;;
11453;SDS011;5783;55.174;61.310;2024-02-21T14:00:40;9.63;;;5.50;;
11453;SDS011;5783;55.174;61.310;2024-02-21T14:03:09;9.70;;;5.83;;
11453;SDS011;5783;55.174;61.310;2024-02-21T14:05:38;8.73;;;6.17;;
11453;SDS011;5783;55.174;61.310;2024-02-21T14:08:07;10.53;;;6.60;;
11453;SDS011;5783;55.174;61.310;2024-02-21T14:10:36;7.60;;;6.10;;
11453;SDS011;5783;55.174;61.310;2024-02-21T14:13:05;7.80;;;5.80;;
11453;SDS011;5783;55.174;61.310;2024-02-21T14:15:34;7.93;;;6.07;;
11453;SDS011;5783;55.174;61.310;2024-02-21T14:18:05;8.73;;;6.17;;
11453;SDS011;5783;55.174;61.310;2024-02-21T14:20:35;8.87;;;6.23;;
11453;SDS011;5783;55.174;61.310;2024-02-21T14:23:06;10.57;;;7.00;;
11453;SDS011;5783;55.174;61.310;2024-02-21T14:25:35;9.70;;;6.53;;
11453;SDS011;5783;55.174;61.310;2024-02-21T14:28:05;11.53;;;6.57;;
11453;SDS011;5783;55.174;61.310;2024-02-21T14:30:36;8.47;;;6.83;;
11453;SDS011;5783;55.174;61.310;2024-02-21T14:33:05;8.27;;;6.60;;
11453;SDS011;5783;55.174;61.310;2024-02-21T14:35:34;8.77;;;6.73;;
11453;SDS011;5783;55.174;61.310;2024-02-21T14:38:03;9.07;;;6.50;;
11453;SDS011;5783;55.174;61.310;2024-02-21T14:40:32;9.73;;;6.57;;
11453;SDS011;5783;55.174;61.310;2024-02-21T14:43:01;10.90;;;6.90;;
11453;SDS011;5783;55.174;61.310;2024-02-21T14:45:30;12.03;;;6.80;;
11453;SDS011;5783;55.174;61.310;2024-02-21T14:48:00;8.97;;;6.13;;
11453;SDS011;5783;55.174;61.310;2024-02-21T14:50:30;6.83;;;5.60;;
11453;SDS011;5783;55.174;61.310;2024-02-21T14:52:59;8.20;;;5.80;;
11453;SDS011;5783;55.174;61.310;2024-02-21T14:55:28;9.13;;;6.37;;
11453;SDS011;5783;55.174;61.310;2024-02-21T14:57:57;11.60;;;6.00;;
11453;SDS011;5783;55.174;61.310;2024-02-21T15:00:26;9.20;;;5.93;;
11453;SDS011;5783;55.174;61.310;2024-02-21T15:02:57;7.90;;;5.30;;
11453;SDS011;5783;55.174;61.310;2024-02-21T15:05:26;8.73;;;5.50;;
11453;SDS011;5783;55.174;61.310;2024-02-21T15:07:56;7.00;;;5.23;;
11453;SDS011;5783;55.174;61.310;2024-02-21T15:10:25;8.33;;;5.57;;
11453;SDS011;5783;55.174;61.310;2024-02-21T15:12:54;8.60;;;5.17;;
11453;SDS011;5783;55.174;61.310;2024-02-21T15:15:23;7.77;;;5.30;;
11453;SDS011;5783;55.174;61.310;2024-02-21T15:17:52;8.53;;;5.30;;
11453;SDS011;5783;55.174;61.310;2024-02-21T15:20:21;6.83;;;5.17;;
11453;SDS011;5783;55.174;61.310;2024-02-21T15:22:51;6.67;;;5.00;;
11453;SDS011;5783;55.174;61.310;2024-02-21T15:25:21;7.37;;;5.40;;
11453;SDS011;5783;55.174;61.310;2024-02-21T15:27:51;6.50;;;5.10;;
11453;SDS011;5783;55.174;61.310;2024-02-21T15:30:20;6.43;;;4.93;;
11453;SDS011;5783;55.174;61.310;2024-02-21T15:32:49;6.37;;;5.40;;
11453;SDS011;5783;55.174;61.310;2024-02-21T15:35:18;7.17;;;5.50;;
11453;SDS011;5783;55.174;61.310;2024-02-21T15:37:47;9.10;;;5.57;;
11453;SDS011;5783;55.174;61.310;2024-02-21T15:40:16;7.13;;;5.20;;
11453;SDS011;5783;55.174;61.310;2024-02-21T15:42:46;7.30;;;5.70;;
11453;SDS011;5783;55.174;61.310;2024-02-21T15:45:15;7.40;;;5.53;;
11453;SDS011;5783;55.174;61.310;2024-02-21T15:47:44;8.33;;;5.93;;
11453;SDS011;5783;55.174;61.310;2024-02-21T15:50:13;8.83;;;5.87;;
11453;SDS011;5783;55.174;61.310;2024-02-21T15:52:42;7.75;;;5.70;;
11453;SDS011;5783;55.174;61.310;2024-02-21T15:55:11;8.53;;;5.50;;
11453;SDS011;5783;55.174;61.310;2024-02-21T15:57:42;7.97;;;6.00;;
11453;SDS011;5783;55.174;61.310;2024-02-21T16:00:12;8.33;;;5.60;;
11453;SDS011;5783;55.174;61.310;2024-02-21T16:02:41;8.33;;;5.73;;
11453;SDS011;5783;55.174;61.310;2024-02-21T16:05:11;8.57;;;6.13;;
11453;SDS011;5783;55.174;61.310;2024-02-21T16:07:55;7.20;;;5.63;;
11453;SDS011;5783;55.174;61.310;2024-02-21T16:10:24;8.37;;;5.83;;
11453;SDS011;5783;55.174;61.310;2024-02-21T16:12:53;7.83;;;5.77;;
11453;SDS011;5783;55.174;61.310;2024-02-21T16:15:23;6.77;;;5.60;;
11453;SDS011;5783;55.174;61.310;2024-02-21T16:17:52;7.07;;;5.37;;
11453;SDS011;5783;55.174;61.310;2024-02-21T16:20:42;7.50;;;5.87;;
11453;SDS011;5783;55.174;61.310;2024-02-21T16:23:13;7.00;;;5.80;;
11453;SDS011;5783;55.174;61.310;2024-02-21T16:26:02;6.80;;;5.40;;
11453;SDS011;5783;55.174;61.310;2024-02-21T16:28:31;8.13;;;5.60;;
11453;SDS011;5783;55.174;61.310;2024-02-21T16:31:01;7.40;;;5.70;;
11453;SDS011;5783;55.174;61.310;2024-02-21T16:33:30;6.83;;;5.57;;
11453;SDS011;5783;55.174;61.310;2024-02-21T16:36:00;6.83;;;5.43;;
11453;SDS011;5783;55.174;61.310;2024-02-21T16:38:33;6.70;;;5.63;;
11453;SDS011;5783;55.174;61.310;2024-02-21T16:41:06;8.10;;;5.40;;
11453;SDS011;5783;55.174;61.310;2024-02-21T16:43:36;8.30;;;6.00;;
11453;SDS011;5783;55.174;61.310;2024-02-21T16:46:05;7.77;;;6.07;;
11453;SDS011;5783;55.174;61.310;2024-02-21T16:48:34;9.80;;;6.67;;
11453;SDS011;5783;55.174;61.310;2024-02-21T16:51:04;7.17;;;5.73;;
11453;SDS011;5783;55.174;61.310;2024-02-21T16:53:32;8.20;;;5.97;;
11453;SDS011;5783;55.174;61.310;2024-02-21T16:56:01;7.27;;;5.80;;
11453;SDS011;5783;55.174;61.310;2024-02-21T16:58:31;8.03;;;5.80;;
11453;SDS011;5783;55.174;61.310;2024-02-21T17:03:51;8.70;;;6.25;;
11453;SDS011;5783;55.174;61.310;2024-02-21T17:06:20;8.70;;;6.47;;
11453;SDS011;5783;55.174;61.310;2024-02-21T17:08:49;8.60;;;6.37;;
11453;SDS011;5783;55.174;61.310;2024-02-21T17:11:20;8.50;;;6.20;;
11453;SDS011;5783;55.174;61.310;2024-02-21T17:13:49;8.73;;;6.70;;
11453;SDS011;5783;55.174;61.310;2024-02-21T17:16:18;9.93;;;7.07;;
11453;SDS011;5783;55.174;61.310;2024-02-21T17:18:48;10.17;;;7.10;;
11453;SDS011;5783;55.174;61.310;2024-02-21T17:21:18;8.77;;;7.60;;
11453;SDS011;5783;55.174;61.310;2024-02-21T17:23:47;11.80;;;7.13;;
11453;SDS011;5783;55.174;61.310;2024-02-21T17:26:16;10.40;;;7.07;;
11453;SDS011;5783;55.174;61.310;2024-02-21T17:28:47;9.33;;;7.13;;
11453;SDS011;5783;55.174;61.310;2024-02-21T17:31:18;9.90;;;7.27;;
11453;SDS011;5783;55.174;61.310;2024-02-21T17:33:47;13.37;;;8.17;;
11453;SDS011;5783;55.174;61.310;2024-02-21T17:36:16;10.37;;;7.80;;
11453;SDS011;5783;55.174;61.310;2024-02-21T17:38:45;10.30;;;7.53;;
11453;SDS011;5783;55.174;61.310;2024-02-21T17:41:17;10.27;;;7.83;;
11453;SDS011;5783;55.174;61.310;2024-02-21T17:43:46;10.73;;;7.70;;
11453;SDS011;5783;55.174;61.310;2024-02-21T17:46:15;10.20;;;7.90;;
11453;SDS011;5783;55.174;61.310;2024-02-21T17:48:46;13.20;;;8.20;;
11453;SDS011;5783;55.174;61.310;2024-02-21T17:51:15;13.93;;;8.03;;
11453;SDS011;5783;55.174;61.310;2024-02-21T17:53:44;13.17;;;8.73;;
11453;SDS011;5783;55.174;61.310;2024-02-21T17:56:13;11.83;;;8.63;;
11453;SDS011;5783;55.174;61.310;2024-02-21T17:58:43;11.55;;;8.55;;
11453;SDS011;5783;55.174;61.310;2024-02-21T18:01:14;14.13;;;9.20;;
11453;SDS011;5783;55.174;61.310;2024-02-21T18:03:43;14.87;;;9.00;;
11453;SDS011;5783;55.174;61.310;2024-02-21T18:06:12;10.93;;;8.13;;
11453;SDS011;5783;55.174;61.310;2024-02-21T18:08:41;15.60;;;9.20;;
11453;SDS011;5783;55.174;61.310;2024-02-21T18:11:10;14.13;;;9.07;;
11453;SDS011;5783;55.174;61.310;2024-02-21T18:13:40;14.00;;;9.70;;
11453;SDS011;5783;55.174;61.310;2024-02-21T18:16:09;12.10;;;8.47;;
11453;SDS011;5783;55.174;61.310;2024-02-21T18:18:38;12.17;;;8.40;;
11453;SDS011;5783;55.174;61.310;2024-02-21T18:21:07;12.40;;;8.25;;
11453;SDS011;5783;55.174;61.310;2024-02-21T18:23:36;13.00;;;8.93;;
11453;SDS011;5783;55.174;61.310;2024-02-21T18:26:25;15.30;;;8.27;;
11453;SDS011;5783;55.174;61.310;2024-02-21T18:28:55;12.00;;;7.97;;
11453;SDS011;5783;55.174;61.310;2024-02-21T18:31:25;10.50;;;8.40;;
11453;SDS011;5783;55.174;61.310;2024-02-21T18:33:54;10.35;;;8.00;;
11453;SDS011;5783;55.174;61.310;2024-02-21T18:36:25;13.53;;;8.57;;
11453;SDS011;5783;55.174;61.310;2024-02-21T18:38:54;11.30;;;8.20;;
11453;SDS011;5783;55.174;61.310;2024-02-21T18:41:24;13.13;;;8.57;;
11453;SDS011;5783;55.174;61.310;2024-02-21T18:43:53;12.20;;;8.00;;
11453;SDS011;5783;55.174;61.310;2024-02-21T18:46:22;12.10;;;8.05;;
11453;SDS011;5783;55.174;61.310;2024-02-21T18:51:20;15.60;;;8.20;;
11453;SDS011;5783;55.174;61.310;2024-02-21T18:53:49;12.90;;;8.55;;
11453;SDS011;5783;55.174;61.310;2024-02-21T18:58:48;11.95;;;7.80;;
11453;SDS011;5783;55.174;61.310;2024-02-21T19:01:17;14.20;;;8.70;;
11453;SDS011;5783;55.174;61.310;2024-02-21T19:04:05;11.53;;;8.10;;
11453;SDS011;5783;55.174;61.310;2024-02-21T19:06:35;10.17;;;7.67;;
11453;SDS011;5783;55.174;61.310;2024-02-21T19:09:04;13.05;;;7.50;;
11453;SDS011;5783;55.174;61.310;2024-02-21T19:11:33;10.50;;;7.35;;
11453;SDS011;5783;55.174;61.310;2024-02-21T19:14:03;11.97;;;7.27;;
11453;SDS011;5783;55.174;61.310;2024-02-21T19:16:32;9.20;;;6.80;;
11453;SDS011;5783;55.174;61.310;2024-02-21T19:22:08;8.30;;;6.20;;
11453;SDS011;5783;55.174;61.310;2024-02-21T19:32:02;8.50;;;6.20;;
11453;SDS011;5783;55.174;61.310;2024-02-21T19:34:31;10.00;;;6.60;;
11453;SDS011;5783;55.174;61.310;2024-02-21T19:41:57;9.60;;;6.10;;
11453;SDS011;5783;55.174;61.310;2024-02-21T19:44:26;8.70;;;6.45;;
11453;SDS011;5783;55.174;61.310;2024-02-21T19:46:56;9.10;;;6.40;;
11453;SDS011;5783;55.174;61.310;2024-02-21T19:49:26;7.13;;;5.73;;
11453;SDS011;5783;55.174;61.310;2024-02-21T19:51:55;10.60;;;6.53;;
11453;SDS011;5783;55.174;61.310;2024-02-21T19:54:24;7.40;;;5.80;;
11453;SDS011;5783;55.174;61.310;2024-02-21T19:56:53;9.40;;;5.80;;
11453;SDS011;5783;55.174;61.310;2024-02-21T19:59:22;9.03;;;5.73;;
11453;SDS011;5783;55.174;61.310;2024-02-21T20:01:51;9.00;;;5.80;;
11453;SDS011;5783;55.174;61.310;2024-02-21T20:04:22;8.60;;;5.70;;
11453;SDS011;5783;55.174;61.310;2024-02-21T20:06:51;7.75;;;5.60;;
11453;SDS011;5783;55.174;61.310;2024-02-21T20:09:20;7.60;;;5.30;;
11453;SDS011;5783;55.174;61.310;2024-02-21T20:11:49;7.45;;;5.80;;
11453;SDS011;5783;55.174;61.310;2024-02-21T20:14:18;7.33;;;5.03;;
11453;SDS011;5783;55.174;61.310;2024-02-21T20:16:47;6.45;;;5.30;;
11453;SDS011;5783;55.174;61.310;2024-02-21T20:19:16;6.90;;;5.30;;
11453;SDS011;5783;55.174;61.310;2024-02-21T20:21:45;6.95;;;5.10;;
11453;SDS011;5783;55.174;61.310;2024-02-21T20:24:15;6.30;;;5.00;;
11453;SDS011;5783;55.174;61.310;2024-02-21T20:26:44;7.90;;;5.37;;